Startpagina
METAR-TAF:

METAR-TAF

Vliegvelden :

Ipiales, Colombia

breedte: 00-49N, lengte: 077-38W, hoogte: 2961 m

Actueel weer

Dit bericht is 5 uur en het 13 minuten geleden gemaakt, om 22:00 UTC
Wind 11 kt uit het zuidoosten
Temperatuur 14°C
Vochtigheid 63%
Druk 1028 hPa
Zicht 10 km of meer
Verspreide wolken op 2000 ft

METAR: SKIP 252200Z 14011KT 9999 SCT020 14/07 A3036

Tijdstip: 22:13 (03:13 UTC)


TAF: ontbreekt

Waarnemingen en weersverwachtingen van meer dan 4000 vliegvelden (METAR en TAF).

De beschikbare stations zijn de gele en rode punten op de kaart.

Ga met uw muis naar het station om de naam te zien.

Klik dan om waarnemingen en weersverwachtingen te zien.

kaart wijzigen: klik op de groene knoppen met een zwart kruis om in te zoomen, op de groene knop met een streepje om uit te zoomen of op de groene pijlen voor aangrenzende kaarten.


METAR-TAF: